You are listening to:
YBSS CTAF - Bacchus Marsh, Victoria, Australia

YMAV 230230Z AUTO 27012KT 9999 // SCT029 SCT044 BKN050 12/12 Q1012

If stream doesn't start automatically press the play button
If stream stops then reload player then press play